Time;durP1;ratioP1;P1;durP2;ratioP2;P2;SDS_P1;SDS_P2;PMS_P1;PMS_P2;Temp;Humidity;BMP_temperature;BMP_pressure;BME280_temperature;BME280_humidity;BME280_pressure;Samples;Min_cycle;Max_cycle;Signal;HPM_P1;HPM_P2
2023/06/29 00:01:59;;;;;;;;;;;14.10;99.90;;;;;;5080347;28;19977;-85
2023/06/29 00:04:25;;;;;;;;;;;14.10;99.90;;;;;;5095606;28;19912;-85
2023/06/29 00:06:52;;;;;;;;;;;14.00;99.90;;;;;;5080023;28;19919;-84
2023/06/29 00:09:19;;;;;;;;;;;14.00;99.90;;;;;;5079467;28;20299;-85
2023/06/29 00:11:45;;;;;;;;;;;14.00;99.90;;;;;;5096815;28;19920;-85
2023/06/29 00:14:10;;;;;;;;;;;13.90;99.90;;;;;;5096469;28;19919;-85
2023/06/29 00:16:36;;;;;;;;;;;13.90;99.90;;;;;;5097004;28;19961;-85
2023/06/29 00:19:01;;;;;;;;;;;13.90;99.90;;;;;;5096478;28;19912;-85
2023/06/29 00:21:28;;;;;;;;;;;13.80;99.90;;;;;;5079658;28;20018;-85
2023/06/29 00:23:54;;;;;;;;;;;13.80;99.90;;;;;;5095797;28;19911;-86
2023/06/29 00:26:20;;;;;;;;;;;13.70;99.90;;;;;;5078728;28;19926;-84
2023/06/29 00:28:46;;;;;;;;;;;13.70;99.90;;;;;;5095933;28;19916;-84
2023/06/29 00:31:12;;;;;;;;;;;13.70;99.90;;;;;;5080619;28;19918;-85
2023/06/29 00:33:37;;;;;;;;;;;13.60;99.90;;;;;;5100149;28;19916;-85
2023/06/29 00:36:03;;;;;;;;;;;13.70;99.90;;;;;;5083620;28;19916;-85
2023/06/29 00:38:29;;;;;;;;;;;13.60;99.90;;;;;;5083452;28;20006;-85
2023/06/29 00:40:55;;;;;;;;;;;13.60;99.90;;;;;;5082963;28;19933;-85
2023/06/29 00:43:20;;;;;;;;;;;13.60;99.90;;;;;;5099675;28;19912;-85
2023/06/29 00:45:46;;;;;;;;;;;13.60;99.90;;;;;;5099568;28;19912;-83
2023/06/29 00:48:12;;;;;;;;;;;13.60;99.90;;;;;;5082108;28;19916;-85
2023/06/29 00:50:39;;;;;;;;;;;13.60;99.90;;;;;;5099697;28;19987;-85
2023/06/29 00:53:05;;;;;;;;;;;13.60;99.90;;;;;;5099405;28;20274;-85
2023/06/29 00:55:30;;;;;;;;;;;13.60;99.90;;;;;;5099599;28;19923;-85
2023/06/29 00:57:57;;;;;;;;;;;13.60;99.90;;;;;;5081445;28;19981;-85
2023/06/29 01:00:23;;;;;;;;;;;13.50;99.90;;;;;;5099687;28;19919;-84
2023/06/29 01:02:49;;;;;;;;;;;13.60;99.90;;;;;;5082453;28;20375;-85
2023/06/29 01:05:16;;;;;;;;;;;13.60;99.90;;;;;;5082557;28;19955;-84
2023/06/29 01:08:14;;;;;;;;;;;13.60;99.90;;;;;;5098330;28;20360;-84
2023/06/29 01:10:40;;;;;;;;;;;13.50;99.90;;;;;;5037752;28;19916;-84
2023/06/29 01:13:06;;;;;;;;;;;13.50;99.90;;;;;;5087064;28;20543;-84
2023/06/29 01:15:33;;;;;;;;;;;13.50;99.90;;;;;;5082419;28;20011;-84
2023/06/29 01:18:00;;;;;;;;;;;13.50;99.90;;;;;;5082722;28;19960;-84
2023/06/29 01:20:26;;;;;;;;;;;13.40;99.90;;;;;;5082029;28;19927;-84
2023/06/29 01:22:56;;;;;;;;;;;13.30;99.90;;;;;;5083169;28;19912;-85
2023/06/29 01:25:23;;;;;;;;;;;13.30;99.90;;;;;;5098413;28;19961;-85
2023/06/29 01:27:49;;;;;;;;;;;13.20;99.90;;;;;;5099552;28;20386;-86
2023/06/29 01:30:15;;;;;;;;;;;13.20;99.90;;;;;;5098580;28;19915;-86
2023/06/29 01:32:41;;;;;;;;;;;13.10;99.90;;;;;;5094668;28;19965;-85
2023/06/29 01:35:08;;;;;;;;;;;13.10;99.90;;;;;;5098754;28;20344;-86
2023/06/29 01:37:47;;;;;;;;;;;13.10;99.90;;;;;;5082141;28;19963;-85
2023/06/29 01:40:15;;;;;;;;;;;13.10;99.90;;;;;;5092785;28;19922;-86
2023/06/29 01:42:42;;;;;;;;;;;13.10;99.90;;;;;;5081467;28;19908;-85
2023/06/29 01:45:09;;;;;;;;;;;13.00;99.90;;;;;;5098495;28;20370;-85
2023/06/29 01:47:35;;;;;;;;;;;12.90;99.90;;;;;;5081283;28;19998;-85
2023/06/29 01:50:18;;;;;;;;;;;12.90;99.90;;;;;;5098888;28;20006;-85
2023/06/29 01:52:44;;;;;;;;;;;12.90;99.90;;;;;;5098479;28;20051;-86
2023/06/29 01:55:10;;;;;;;;;;;12.90;99.90;;;;;;5081623;28;19919;-85
2023/06/29 01:57:37;;;;;;;;;;;12.80;99.90;;;;;;5081875;28;20477;-85
2023/06/29 02:00:06;;;;;;;;;;;12.90;99.90;;;;;;5082872;28;19961;-85
2023/06/29 02:02:39;;;;;;;;;;;12.90;99.90;;;;;;5102175;28;19915;-85
2023/06/29 02:05:05;;;;;;;;;;;12.90;99.90;;;;;;5099741;28;19975;-86
2023/06/29 02:07:31;;;;;;;;;;;12.90;99.90;;;;;;5116109;28;19983;-85
2023/06/29 02:09:57;;;;;;;;;;;12.90;99.90;;;;;;5098758;28;20215;-86
2023/06/29 02:12:23;;;;;;;;;;;12.90;99.90;;;;;;5111680;28;19915;-85
2023/06/29 02:14:49;;;;;;;;;;;13.00;99.90;;;;;;5101202;28;19912;-85
2023/06/29 02:17:15;;;;;;;;;;;13.00;99.90;;;;;;5099235;28;19957;-85
2023/06/29 02:19:41;;;;;;;;;;;13.00;99.90;;;;;;5099791;28;19935;-85
2023/06/29 02:22:07;;;;;;;;;;;13.00;99.90;;;;;;5081532;28;19986;-86
2023/06/29 02:24:32;;;;;;;;;;;13.00;99.90;;;;;;5098505;28;19918;-85
2023/06/29 02:27:01;;;;;;;;;;;12.90;99.90;;;;;;5081221;28;19911;-85
2023/06/29 02:29:26;;;;;;;;;;;12.90;99.90;;;;;;5080634;28;19916;-85
2023/06/29 02:31:52;;;;;;;;;;;12.90;99.90;;;;;;5097425;28;20018;-85
2023/06/29 02:34:19;;;;;;;;;;;12.80;99.90;;;;;;5081061;28;19959;-85
2023/06/29 02:36:45;;;;;;;;;;;12.90;99.90;;;;;;5081035;28;20585;-85
2023/06/29 02:39:13;;;;;;;;;;;12.80;99.90;;;;;;5080978;28;19933;-85
2023/06/29 02:41:54;;;;;;;;;;;12.80;99.90;;;;;;5080362;28;19919;-85
2023/06/29 02:44:20;;;;;;;;;;;12.80;99.90;;;;;;5080735;28;20010;-86
2023/06/29 02:46:46;;;;;;;;;;;12.70;99.90;;;;;;5097109;28;19939;-86
2023/06/29 02:49:12;;;;;;;;;;;12.70;99.90;;;;;;5080957;28;19919;-86
2023/06/29 02:51:37;;;;;;;;;;;12.70;99.90;;;;;;5097707;28;19926;-85
2023/06/29 02:54:07;;;;;;;;;;;12.70;99.90;;;;;;5094178;27;19912;-85
2023/06/29 02:56:32;;;;;;;;;;;12.60;99.90;;;;;;5096920;28;20376;-85
2023/06/29 02:58:59;;;;;;;;;;;12.60;99.90;;;;;;5079564;28;19918;-86
2023/06/29 03:01:27;;;;;;;;;;;12.60;99.90;;;;;;5093523;28;19919;-85
2023/06/29 03:03:53;;;;;;;;;;;12.50;99.90;;;;;;5083805;28;19920;-86
2023/06/29 03:06:18;;;;;;;;;;;12.50;99.90;;;;;;5115903;28;19991;-85
2023/06/29 03:08:44;;;;;;;;;;;12.50;99.90;;;;;;5080285;28;19961;-85
2023/06/29 03:11:22;;;;;;;;;;;12.50;99.90;;;;;;5097250;28;19961;-86
2023/06/29 03:13:50;;;;;;;;;;;12.50;99.90;;;;;;5097251;28;19915;-85
2023/06/29 03:16:16;;;;;;;;;;;12.50;99.90;;;;;;5097170;28;19965;-86
2023/06/29 03:18:42;;;;;;;;;;;12.50;99.90;;;;;;5097177;28;19915;-86
2023/06/29 03:21:08;;;;;;;;;;;12.50;99.90;;;;;;5080513;28;19990;-85
2023/06/29 03:23:33;;;;;;;;;;;12.40;99.90;;;;;;5071939;28;20306;-88
2023/06/29 03:25:59;;;;;;;;;;;12.50;99.90;;;;;;5101805;27;19994;-87
2023/06/29 03:28:25;;;;;;;;;;;12.40;99.90;;;;;;5084201;28;20272;-88
2023/06/29 03:30:50;;;;;;;;;;;12.40;99.90;;;;;;5097758;28;20600;-88
2023/06/29 03:33:16;;;;;;;;;;;12.50;99.90;;;;;;5080816;28;19912;-88
2023/06/29 03:35:42;;;;;;;;;;;12.50;99.90;;;;;;5097459;28;20004;-88
2023/06/29 03:38:08;;;;;;;;;;;12.40;99.90;;;;;;5080770;28;20370;-87
2023/06/29 03:40:34;;;;;;;;;;;12.50;99.90;;;;;;5097770;28;19915;-88
2023/06/29 03:43:00;;;;;;;;;;;12.40;99.90;;;;;;5080679;28;19968;-87
2023/06/29 03:45:25;;;;;;;;;;;12.50;99.90;;;;;;5114059;28;19916;-87
2023/06/29 03:47:51;;;;;;;;;;;12.60;99.90;;;;;;5080662;28;19912;-88
2023/06/29 03:50:17;;;;;;;;;;;12.60;99.90;;;;;;5097385;28;20320;-87
2023/06/29 03:52:42;;;;;;;;;;;12.60;99.90;;;;;;5097539;28;19908;-88
2023/06/29 03:55:08;;;;;;;;;;;12.70;99.90;;;;;;5080472;28;19912;-88
2023/06/29 03:57:34;;;;;;;;;;;12.70;99.90;;;;;;5080716;28;19919;-88
2023/06/29 03:59:59;;;;;;;;;;;12.80;99.90;;;;;;5080899;28;20419;-87
2023/06/29 04:02:25;;;;;;;;;;;12.80;99.90;;;;;;5098040;28;20255;-86
2023/06/29 04:04:51;;;;;;;;;;;12.90;99.90;;;;;;5080695;28;19912;-87
2023/06/29 04:07:16;;;;;;;;;;;13.00;99.90;;;;;;5115002;28;20365;-87
2023/06/29 04:09:42;;;;;;;;;;;13.20;99.90;;;;;;5095952;28;19916;-87
2023/06/29 04:12:07;;;;;;;;;;;13.30;99.90;;;;;;5115312;28;19977;-87
2023/06/29 04:14:33;;;;;;;;;;;13.40;99.90;;;;;;5096473;28;20692;-86
2023/06/29 04:16:59;;;;;;;;;;;13.60;99.90;;;;;;5079812;28;19912;-87
2023/06/29 04:19:24;;;;;;;;;;;13.70;99.90;;;;;;5097562;28;19912;-87
2023/06/29 04:21:50;;;;;;;;;;;13.90;99.90;;;;;;5080031;28;19958;-88
2023/06/29 04:24:15;;;;;;;;;;;14.00;99.90;;;;;;5096654;28;19933;-87
2023/06/29 04:26:41;;;;;;;;;;;14.10;99.90;;;;;;5114912;28;19912;-87
2023/06/29 04:29:07;;;;;;;;;;;14.20;99.90;;;;;;5114202;28;19920;-87
2023/06/29 04:31:38;;;;;;;;;;;14.30;99.90;;;;;;5096381;28;19920;-87
2023/06/29 04:34:04;;;;;;;;;;;14.40;99.90;;;;;;5096517;28;19912;-87
2023/06/29 04:36:33;;;;;;;;;;;14.50;99.90;;;;;;5077574;28;19918;-87
2023/06/29 04:38:58;;;;;;;;;;;14.60;99.90;;;;;;5079998;28;19915;-87
2023/06/29 04:41:33;;;;;;;;;;;14.70;99.90;;;;;;5080442;28;20015;-87
2023/06/29 04:43:59;;;;;;;;;;;14.80;99.90;;;;;;5097303;28;19912;-87
2023/06/29 04:46:26;;;;;;;;;;;14.90;99.90;;;;;;5096223;28;19950;-87
2023/06/29 04:48:51;;;;;;;;;;;15.00;99.90;;;;;;5097237;28;19978;-88
2023/06/29 04:51:18;;;;;;;;;;;15.10;99.90;;;;;;5079607;28;19916;-88
2023/06/29 04:53:44;;;;;;;;;;;15.20;99.90;;;;;;5096795;28;19912;-88
2023/06/29 04:56:10;;;;;;;;;;;15.30;99.90;;;;;;5079231;28;19935;-88
2023/06/29 04:58:35;;;;;;;;;;;15.40;99.90;;;;;;5097051;28;19919;-88
2023/06/29 05:01:01;;;;;;;;;;;15.50;99.90;;;;;;5079666;28;19912;-86
2023/06/29 05:03:26;;;;;;;;;;;15.60;99.90;;;;;;5097363;28;19957;-88
2023/06/29 05:05:52;;;;;;;;;;;15.70;99.90;;;;;;5079909;28;19926;-88
2023/06/29 05:08:46;;;;;;;;;;;15.90;99.90;;;;;;5079731;28;19920;-87
2023/06/29 05:11:11;;;;;;;;;;;16.10;99.90;;;;;;5074127;28;20646;-88
2023/06/29 05:13:37;;;;;;;;;;;16.30;99.90;;;;;;5079760;28;20190;-86
2023/06/29 05:16:05;;;;;;;;;;;16.50;99.90;;;;;;5096819;28;20295;-87
2023/06/29 05:18:31;;;;;;;;;;;16.60;99.90;;;;;;5082886;28;19912;-87
2023/06/29 05:21:00;;;;;;;;;;;16.80;99.90;;;;;;5087958;28;20092;-87
2023/06/29 05:23:26;;;;;;;;;;;16.90;99.90;;;;;;5084353;28;20344;-86
2023/06/29 05:25:51;;;;;;;;;;;17.10;99.90;;;;;;5083492;28;19918;-88
2023/06/29 05:28:17;;;;;;;;;;;17.20;99.90;;;;;;5083990;28;19967;-88
2023/06/29 05:30:43;;;;;;;;;;;17.40;99.90;;;;;;5099806;28;19904;-88
2023/06/29 05:33:08;;;;;;;;;;;17.50;99.90;;;;;;5082033;28;19912;-87
2023/06/29 05:35:35;;;;;;;;;;;17.60;99.90;;;;;;5114168;28;19958;-88
2023/06/29 05:38:01;;;;;;;;;;;17.70;99.90;;;;;;5118069;28;19912;-88
2023/06/29 05:40:27;;;;;;;;;;;17.90;99.90;;;;;;5100892;28;19934;-88
2023/06/29 05:42:52;;;;;;;;;;;18.10;99.90;;;;;;5100053;28;19912;-86
2023/06/29 05:45:18;;;;;;;;;;;18.20;99.90;;;;;;5134721;27;19916;-87
2023/06/29 05:47:43;;;;;;;;;;;18.30;99.90;;;;;;5098917;28;19918;-88
2023/06/29 05:50:09;;;;;;;;;;;18.40;99.90;;;;;;5099609;28;19969;-88
2023/06/29 05:52:35;;;;;;;;;;;18.60;99.90;;;;;;5082754;28;19950;-88
2023/06/29 05:55:01;;;;;;;;;;;18.70;99.90;;;;;;5099642;28;19911;-87
2023/06/29 05:57:52;;;;;;;;;;;18.80;99.90;;;;;;5082157;28;19912;-87
2023/06/29 06:00:18;;;;;;;;;;;18.90;99.90;;;;;;5079630;28;20435;-88
2023/06/29 06:02:44;;;;;;;;;;;19.00;99.90;;;;;;5098995;28;19955;-88
2023/06/29 06:05:09;;;;;;;;;;;19.00;99.90;;;;;;5082910;28;19965;-87
2023/06/29 06:07:35;;;;;;;;;;;19.10;99.90;;;;;;5099866;28;19919;-88
2023/06/29 06:10:01;;;;;;;;;;;19.20;99.90;;;;;;5082680;28;19904;-89
2023/06/29 06:12:26;;;;;;;;;;;19.30;99.90;;;;;;5082372;28;19912;-88
2023/06/29 06:14:52;;;;;;;;;;;19.40;99.90;;;;;;5081501;28;20386;-88
2023/06/29 06:17:17;;;;;;;;;;;19.50;99.90;;;;;;5081732;28;19927;-85
2023/06/29 06:19:43;;;;;;;;;;;19.60;99.90;;;;;;5099509;28;19911;-88
2023/06/29 06:22:09;;;;;;;;;;;19.70;99.90;;;;;;5081717;28;19915;-88
2023/06/29 06:24:35;;;;;;;;;;;19.80;99.90;;;;;;5099264;28;19907;-88
2023/06/29 06:27:01;;;;;;;;;;;19.90;99.90;;;;;;5081676;28;19981;-88
2023/06/29 06:29:27;;;;;;;;;;;20.00;99.90;;;;;;5097972;28;19922;-87
2023/06/29 06:31:53;;;;;;;;;;;20.00;99.90;;;;;;5081528;28;20006;-87
2023/06/29 06:34:18;;;;;;;;;;;20.00;99.90;;;;;;5116436;28;19947;-86
2023/06/29 06:36:45;;;;;;;;;;;20.00;99.90;;;;;;5097434;28;19920;-88
2023/06/29 06:39:26;;;;;;;;;;;20.10;99.90;;;;;;5081478;28;20379;-85
2023/06/29 06:41:52;;;;;;;;;;;20.20;99.90;;;;;;5081962;28;19911;-87
2023/06/29 06:44:17;;;;;;;;;;;20.20;99.90;;;;;;5098558;28;19916;-86
2023/06/29 06:46:43;;;;;;;;;;;20.20;99.90;;;;;;5081021;28;19912;-86
2023/06/29 06:49:09;;;;;;;;;;;20.30;99.90;;;;;;5098378;28;19950;-85
2023/06/29 06:51:35;;;;;;;;;;;20.30;99.90;;;;;;5098405;28;19912;-88
2023/06/29 06:54:00;;;;;;;;;;;20.20;99.90;;;;;;5081657;28;19911;-86
2023/06/29 06:56:26;;;;;;;;;;;20.20;99.90;;;;;;5097919;28;20392;-86
2023/06/29 06:58:51;;;;;;;;;;;20.20;99.90;;;;;;5106564;28;19912;-86
2023/06/29 07:01:21;;;;;;;;;;;20.40;99.90;;;;;;5114999;28;19955;-86
2023/06/29 07:03:52;;;;;;;;;;;20.40;99.90;;;;;;5097346;28;19920;-86
2023/06/29 07:06:18;;;;;;;;;;;20.60;99.90;;;;;;5111564;28;19916;-87
2023/06/29 07:08:44;;;;;;;;;;;20.70;99.90;;;;;;5097842;28;19984;-86
2023/06/29 07:11:09;;;;;;;;;;;20.80;99.90;;;;;;5098177;28;19916;-86
2023/06/29 07:13:35;;;;;;;;;;;20.90;99.90;;;;;;5080382;28;20363;-86
2023/06/29 07:16:38;;;;;;;;;;;21.60;99.90;;;;;;5098022;28;19964;-86
2023/06/29 07:19:08;;;;;;;;;;;22.70;99.90;;;;;;5096063;28;19912;-86
2023/06/29 07:21:34;;;;;;;;;;;24.40;99.90;;;;;;5107705;27;19915;-87
2023/06/29 07:23:59;;;;;;;;;;;25.80;99.90;;;;;;5082239;28;20247;-88
2023/06/29 07:26:46;;;;;;;;;;;27.30;97.90;;;;;;5081616;28;19946;-88
2023/06/29 07:29:12;;;;;;;;;;;27.40;93.60;;;;;;5075638;28;20321;-88
2023/06/29 07:31:38;;;;;;;;;;;27.50;93.20;;;;;;5079736;28;19991;-87
2023/06/29 07:34:04;;;;;;;;;;;28.20;91.80;;;;;;5098066;28;20173;-88
2023/06/29 07:36:34;;;;;;;;;;;28.80;90.50;;;;;;5079417;28;19955;-88
2023/06/29 07:38:59;;;;;;;;;;;29.00;86.80;;;;;;5080380;28;19911;-87
2023/06/29 07:41:26;;;;;;;;;;;29.30;86.40;;;;;;5079671;28;19908;-88
2023/06/29 07:43:55;;;;;;;;;;;29.60;83.40;;;;;;5090545;28;19955;-86
2023/06/29 07:46:21;;;;;;;;;;;28.50;82.30;;;;;;5096882;28;20011;-87
2023/06/29 07:48:47;;;;;;;;;;;26.90;85.70;;;;;;5096461;28;20010;-86
2023/06/29 07:51:13;;;;;;;;;;;25.40;89.10;;;;;;5077139;28;19964;-87
2023/06/29 07:53:39;;;;;;;;;;;24.40;90.70;;;;;;5114431;28;20002;-87
2023/06/29 07:56:05;;;;;;;;;;;24.00;91.70;;;;;;5081935;28;19912;-87
2023/06/29 07:58:30;;;;;;;;;;;23.90;93.00;;;;;;5115840;28;20351;-88
2023/06/29 08:00:56;;;;;;;;;;;23.90;92.80;;;;;;5097575;28;19938;-89
2023/06/29 08:03:22;;;;;;;;;;;24.60;91.80;;;;;;5099855;28;19980;-88
2023/06/29 08:05:57;;;;;;;;;;;25.70;90.60;;;;;;5081647;28;19916;-88
2023/06/29 08:08:26;;;;;;;;;;;26.40;89.00;;;;;;5097949;28;19919;-87
2023/06/29 08:10:52;;;;;;;;;;;27.20;89.10;;;;;;5096993;28;19970;-88
2023/06/29 08:13:18;;;;;;;;;;;28.80;85.30;;;;;;5080387;28;20352;-88
2023/06/29 08:15:43;;;;;;;;;;;29.90;83.00;;;;;;5080542;28;20291;-88
2023/06/29 08:18:14;;;;;;;;;;;30.40;78.80;;;;;;5097395;28;19912;-88
2023/06/29 08:20:41;;;;;;;;;;;30.30;76.30;;;;;;5080137;28;19919;-88
2023/06/29 08:23:25;;;;;;;;;;;29.80;75.70;;;;;;5080775;28;19919;-87
2023/06/29 08:25:51;;;;;;;;;;;29.90;76.20;;;;;;5114897;28;20367;-88
2023/06/29 08:28:16;;;;;;;;;;;30.20;74.80;;;;;;5079638;28;19912;-88
2023/06/29 08:30:42;;;;;;;;;;;30.10;73.80;;;;;;5096915;28;19930;-89
2023/06/29 08:33:07;;;;;;;;;;;30.00;75.20;;;;;;5079016;28;19919;-88
2023/06/29 08:35:33;;;;;;;;;;;30.10;74.00;;;;;;5096286;28;20355;-88
2023/06/29 08:37:58;;;;;;;;;;;31.50;72.90;;;;;;5079115;28;19943;-88
2023/06/29 08:40:25;;;;;;;;;;;32.50;70.10;;;;;;5096698;28;19912;-88
2023/06/29 08:42:51;;;;;;;;;;;32.00;70.00;;;;;;5080089;28;19911;-88
2023/06/29 08:45:17;;;;;;;;;;;32.70;69.60;;;;;;5097895;28;20015;-88
2023/06/29 08:47:46;;;;;;;;;;;33.20;68.20;;;;;;5079513;28;19940;-88
2023/06/29 08:50:12;;;;;;;;;;;33.50;66.20;;;;;;5096917;28;19941;-89
2023/06/29 08:52:39;;;;;;;;;;;31.30;67.20;;;;;;5082184;28;19923;-88
2023/06/29 08:55:05;;;;;;;;;;;30.10;70.80;;;;;;5083348;28;19912;-88
2023/06/29 08:57:32;;;;;;;;;;;29.40;71.30;;;;;;5085296;28;19956;-88
2023/06/29 08:59:58;;;;;;;;;;;28.90;72.50;;;;;;5084870;28;19908;-89
2023/06/29 09:02:24;;;;;;;;;;;29.10;73.50;;;;;;5084174;28;19911;-88
2023/06/29 09:04:50;;;;;;;;;;;29.60;71.90;;;;;;5100681;28;19911;-88
2023/06/29 09:07:15;;;;;;;;;;;30.00;71.00;;;;;;5084788;28;20008;-88
2023/06/29 09:09:41;;;;;;;;;;;29.70;71.30;;;;;;5116991;28;19916;-88
2023/06/29 09:12:09;;;;;;;;;;;29.20;71.70;;;;;;5100366;28;19920;-87
2023/06/29 09:14:43;;;;;;;;;;;29.10;71.30;;;;;;5100826;28;19919;-88
2023/06/29 09:17:28;;;;;;;;;;;30.00;71.70;;;;;;5083541;28;19915;-88
2023/06/29 09:19:55;;;;;;;;;;;31.00;68.50;;;;;;5098840;28;20428;-89
2023/06/29 09:22:21;;;;;;;;;;;32.20;67.50;;;;;;5117359;27;19919;-89
2023/06/29 09:24:47;;;;;;;;;;;32.70;65.70;;;;;;5099753;28;19963;-89
2023/06/29 09:27:13;;;;;;;;;;;32.90;64.00;;;;;;5099784;28;19912;-89
2023/06/29 09:29:39;;;;;;;;;;;32.80;64.30;;;;;;5100038;28;19923;-89
2023/06/29 09:32:12;;;;;;;;;;;32.70;63.80;;;;;;5084459;28;19918;-89
2023/06/29 09:34:43;;;;;;;;;;;32.40;62.70;;;;;;5100391;28;19923;-90
2023/06/29 09:37:11;;;;;;;;;;;33.20;61.50;;;;;;5101534;28;19911;-89
2023/06/29 09:39:37;;;;;;;;;;;33.10;60.10;;;;;;5084489;28;19925;-90
2023/06/29 09:42:02;;;;;;;;;;;32.00;61.60;;;;;;5104804;28;19915;-89
2023/06/29 09:44:44;;;;;;;;;;;31.80;63.50;;;;;;5098983;28;19915;-89
2023/06/29 09:47:34;;;;;;;;;;;32.10;64.10;;;;;;5097358;28;19918;-87
2023/06/29 09:50:01;;;;;;;;;;;32.30;63.70;;;;;;5083012;28;19915;-88
2023/06/29 09:52:26;;;;;;;;;;;32.70;62.10;;;;;;5082983;28;20256;-89
2023/06/29 09:54:58;;;;;;;;;;;32.50;62.10;;;;;;5100055;28;19919;-88
2023/06/29 09:57:25;;;;;;;;;;;31.70;62.80;;;;;;5081816;28;19958;-88
2023/06/29 09:59:50;;;;;;;;;;;30.80;64.10;;;;;;5117651;28;19911;-88
2023/06/29 10:02:17;;;;;;;;;;;30.40;65.60;;;;;;5083869;28;19919;-87
2023/06/29 10:04:43;;;;;;;;;;;29.90;67.10;;;;;;5099921;28;20386;-88
2023/06/29 10:07:12;;;;;;;;;;;29.30;69.40;;;;;;5083232;28;19919;-88
2023/06/29 10:09:42;;;;;;;;;;;28.90;70.30;;;;;;5117285;28;19976;-88
2023/06/29 10:12:09;;;;;;;;;;;28.90;69.20;;;;;;5082940;28;19924;-88
2023/06/29 10:14:36;;;;;;;;;;;28.80;68.20;;;;;;5099858;28;19911;-87
2023/06/29 10:17:03;;;;;;;;;;;29.00;70.40;;;;;;5082576;28;20383;-87
2023/06/29 10:19:29;;;;;;;;;;;29.30;69.10;;;;;;5099878;28;19912;-89
2023/06/29 10:21:59;;;;;;;;;;;29.90;67.50;;;;;;5082073;28;19924;-89
2023/06/29 10:24:59;;;;;;;;;;;29.50;67.70;;;;;;5099669;28;19912;-88
2023/06/29 10:27:26;;;;;;;;;;;29.00;68.80;;;;;;5079166;28;19953;-88
2023/06/29 10:29:52;;;;;;;;;;;29.70;69.10;;;;;;5135177;27;20006;-87
2023/06/29 10:32:38;;;;;;;;;;;30.50;67.40;;;;;;5100134;28;19955;-89
2023/06/29 10:35:05;;;;;;;;;;;30.60;67.50;;;;;;5085126;28;19911;-88
2023/06/29 10:37:31;;;;;;;;;;;30.60;67.80;;;;;;5101419;28;20531;-88
2023/06/29 10:39:58;;;;;;;;;;;30.80;65.90;;;;;;5082862;28;19931;-89
2023/06/29 10:42:23;;;;;;;;;;;31.00;64.70;;;;;;5100174;28;19911;-89
2023/06/29 10:44:49;;;;;;;;;;;29.80;66.40;;;;;;5099477;28;19990;-88
2023/06/29 10:47:26;;;;;;;;;;;29.10;68.30;;;;;;5081912;28;19957;-89
2023/06/29 10:49:55;;;;;;;;;;;28.60;69.60;;;;;;5081071;28;19947;-88
2023/06/29 10:52:24;;;;;;;;;;;27.80;69.70;;;;;;5099102;28;20007;-89
2023/06/29 10:55:26;;;;;;;;;;;27.20;71.90;;;;;;5098464;28;19918;-88
2023/06/29 10:58:06;;;;;;;;;;;26.70;72.80;;;;;;5018040;28;19975;-89
2023/06/29 11:00:31;;;;;;;;;;;26.40;74.60;;;;;;5091053;28;19940;-88
2023/06/29 11:02:59;;;;;;;;;;;26.40;75.50;;;;;;5099622;28;19919;-89
2023/06/29 11:05:24;;;;;;;;;;;26.40;74.60;;;;;;5098267;28;20361;-87
2023/06/29 11:07:59;;;;;;;;;;;26.10;75.60;;;;;;5098013;28;19912;-88
2023/06/29 11:10:25;;;;;;;;;;;25.80;76.10;;;;;;5080782;28;19916;-89
2023/06/29 11:12:54;;;;;;;;;;;25.80;77.60;;;;;;5098423;28;19912;-89
2023/06/29 11:15:21;;;;;;;;;;;26.00;76.20;;;;;;5079913;28;19915;-89
2023/06/29 11:17:48;;;;;;;;;;;26.20;77.00;;;;;;5097501;28;20560;-89
2023/06/29 11:20:18;;;;;;;;;;;26.70;76.50;;;;;;5098543;28;19912;-89
2023/06/29 11:22:51;;;;;;;;;;;27.10;76.10;;;;;;5098749;28;20002;-89
2023/06/29 11:25:18;;;;;;;;;;;27.30;75.30;;;;;;5081904;28;20662;-89
2023/06/29 11:27:44;;;;;;;;;;;27.50;74.50;;;;;;5107168;28;19916;-88
2023/06/29 11:30:10;;;;;;;;;;;27.40;74.40;;;;;;5081869;28;20396;-90
2023/06/29 11:32:36;;;;;;;;;;;27.40;75.80;;;;;;5098234;28;19936;-89
2023/06/29 11:35:03;;;;;;;;;;;28.10;74.10;;;;;;5081015;28;20344;-89
2023/06/29 11:37:29;;;;;;;;;;;28.40;73.20;;;;;;5102536;28;19968;-89
2023/06/29 11:39:54;;;;;;;;;;;28.40;72.70;;;;;;5097174;28;19945;-87
2023/06/29 11:42:21;;;;;;;;;;;28.50;72.90;;;;;;5097501;28;20001;-87
2023/06/29 11:45:06;;;;;;;;;;;28.70;73.30;;;;;;5097622;28;19919;-89
2023/06/29 11:47:32;;;;;;;;;;;28.80;73.10;;;;;;5097664;28;19912;-88
2023/06/29 11:49:59;;;;;;;;;;;28.50;73.90;;;;;;5098509;28;19946;-87
2023/06/29 11:52:32;;;;;;;;;;;27.90;73.70;;;;;;5099213;28;19998;-88
2023/06/29 11:55:02;;;;;;;;;;;27.70;75.10;;;;;;5107409;28;19920;-88
2023/06/29 11:57:34;;;;;;;;;;;27.60;75.90;;;;;;5081365;28;19965;-88
2023/06/29 12:00:00;;;;;;;;;;;27.60;74.80;;;;;;5098472;28;19925;-89
2023/06/29 12:02:27;;;;;;;;;;;27.60;76.00;;;;;;5081255;28;20367;-88
2023/06/29 12:05:03;;;;;;;;;;;27.30;75.70;;;;;;5080774;28;19926;-88
2023/06/29 12:07:45;;;;;;;;;;;27.20;76.20;;;;;;5080639;28;19963;-87
2023/06/29 12:10:18;;;;;;;;;;;26.70;76.10;;;;;;5081515;28;19915;-89
2023/06/29 12:12:45;;;;;;;;;;;26.50;78.40;;;;;;5114531;28;19915;-90
2023/06/29 12:15:21;;;;;;;;;;;26.30;78.60;;;;;;5080677;28;19908;-87
2023/06/29 12:17:47;;;;;;;;;;;26.10;78.00;;;;;;5099653;28;19915;-89
2023/06/29 12:20:14;;;;;;;;;;;26.10;79.10;;;;;;5081224;28;19947;-87
2023/06/29 12:22:40;;;;;;;;;;;25.80;80.50;;;;;;5097883;28;19923;-88
2023/06/29 12:25:09;;;;;;;;;;;25.50;79.50;;;;;;5080222;28;19916;-88
2023/06/29 12:27:45;;;;;;;;;;;25.40;80.00;;;;;;5100483;28;20282;-88
2023/06/29 12:30:14;;;;;;;;;;;25.30;81.20;;;;;;5085226;28;19922;-88
2023/06/29 12:32:44;;;;;;;;;;;25.30;81.60;;;;;;5102646;28;19912;-87
2023/06/29 12:35:10;;;;;;;;;;;25.30;82.10;;;;;;5104512;28;19937;-90
2023/06/29 12:37:36;;;;;;;;;;;25.20;81.10;;;;;;5086504;28;19912;-90
2023/06/29 12:40:04;;;;;;;;;;;25.00;82.00;;;;;;5089696;27;20355;-89
2023/06/29 12:42:30;;;;;;;;;;;24.80;83.30;;;;;;5094279;28;19912;-89
2023/06/29 12:44:55;;;;;;;;;;;24.50;83.40;;;;;;5084788;28;19918;-89
2023/06/29 12:47:21;;;;;;;;;;;24.10;84.70;;;;;;5084885;28;19978;-90
2023/06/29 12:49:48;;;;;;;;;;;23.80;86.30;;;;;;5084351;28;20010;-89
2023/06/29 12:52:15;;;;;;;;;;;23.50;86.60;;;;;;5085489;28;19912;-89
2023/06/29 12:54:40;;;;;;;;;;;23.40;87.30;;;;;;5085944;27;19918;-89
2023/06/29 12:57:06;;;;;;;;;;;23.30;88.20;;;;;;5093022;28;19915;-88
2023/06/29 12:59:32;;;;;;;;;;;23.20;90.40;;;;;;5084289;28;19918;-89
2023/06/29 13:02:04;;;;;;;;;;;23.00;90.90;;;;;;5102217;28;19920;-89
2023/06/29 13:04:38;;;;;;;;;;;23.10;90.70;;;;;;5085589;28;19926;-89
2023/06/29 13:07:04;;;;;;;;;;;23.30;90.90;;;;;;5083899;28;19916;-88
2023/06/29 13:09:30;;;;;;;;;;;23.50;90.20;;;;;;5100896;28;19916;-89
2023/06/29 13:11:59;;;;;;;;;;;23.70;90.40;;;;;;5083727;28;19957;-88
2023/06/29 13:14:25;;;;;;;;;;;23.90;89.60;;;;;;5105293;28;19916;-89
2023/06/29 13:16:50;;;;;;;;;;;24.10;90.00;;;;;;5122134;27;19960;-89
2023/06/29 13:19:16;;;;;;;;;;;24.40;89.50;;;;;;5118640;28;19912;-89
2023/06/29 13:21:41;;;;;;;;;;;24.90;86.30;;;;;;5100579;28;20369;-89
2023/06/29 13:24:07;;;;;;;;;;;25.40;85.70;;;;;;5102872;28;19916;-90
2023/06/29 13:26:36;;;;;;;;;;;26.10;84.80;;;;;;5108067;28;19911;-89
2023/06/29 13:29:01;;;;;;;;;;;26.60;84.80;;;;;;5084873;28;19951;-88
2023/06/29 13:31:27;;;;;;;;;;;27.10;81.00;;;;;;5084609;28;19912;-88
2023/06/29 13:33:53;;;;;;;;;;;27.20;79.50;;;;;;5102083;28;19957;-89
2023/06/29 13:36:18;;;;;;;;;;;27.60;80.20;;;;;;5084929;28;19911;-92
2023/06/29 13:38:44;;;;;;;;;;;27.40;79.50;;;;;;5100669;28;20437;-90
2023/06/29 13:41:09;;;;;;;;;;;27.10;80.50;;;;;;5102205;28;19967;-88
2023/06/29 13:43:35;;;;;;;;;;;26.60;80.50;;;;;;5083585;28;20369;-88
2023/06/29 13:46:01;;;;;;;;;;;26.40;79.20;;;;;;5101183;28;19908;-88
2023/06/29 13:48:26;;;;;;;;;;;26.60;80.60;;;;;;5082766;28;19896;-89
2023/06/29 13:50:52;;;;;;;;;;;26.70;80.90;;;;;;5118264;28;20103;-88
2023/06/29 13:53:17;;;;;;;;;;;26.90;80.00;;;;;;5084175;28;20007;-88
2023/06/29 13:55:44;;;;;;;;;;;27.20;80.70;;;;;;5118183;28;19938;-90
2023/06/29 13:58:10;;;;;;;;;;;27.70;79.10;;;;;;5103219;28;19916;-89
2023/06/29 14:00:36;;;;;;;;;;;27.90;77.20;;;;;;5118134;28;20356;-89
2023/06/29 14:03:04;;;;;;;;;;;28.30;78.80;;;;;;5084663;28;19916;-88
2023/06/29 14:05:30;;;;;;;;;;;28.30;78.10;;;;;;5100251;28;19916;-90
2023/06/29 14:07:56;;;;;;;;;;;27.80;78.30;;;;;;5118229;28;19919;-89
2023/06/29 14:10:25;;;;;;;;;;;27.00;78.80;;;;;;5083605;28;19916;-89
2023/06/29 14:12:51;;;;;;;;;;;26.20;80.90;;;;;;5100564;28;19912;-90
2023/06/29 14:15:16;;;;;;;;;;;25.90;82.40;;;;;;5083367;28;19922;-89
2023/06/29 14:17:42;;;;;;;;;;;25.90;82.70;;;;;;5102397;28;19934;-89
2023/06/29 14:20:08;;;;;;;;;;;25.90;83.20;;;;;;5084043;28;19951;-88